Time;durP1;ratioP1;P1;durP2;ratioP2;P2;SDS_P1;SDS_P2;PMS_P1;PMS_P2;Temp;Humidity;BMP_temperature;BMP_pressure;BME280_temperature;BME280_humidity;BME280_pressure;Samples;Min_cycle;Max_cycle;Signal;HPM_P1;HPM_P2
2023/12/31 00:01:16;;;;;;;3.70;1.20;;;;;;;;;;5021500;28;20550;-74
2023/12/31 00:03:42;;;;;;;5.75;1.45;;;;;;;;;;5011776;28;20589;-75
2023/12/31 00:06:07;;;;;;;2.58;1.20;;;;;;;;;;5028902;28;20197;-74
2023/12/31 00:08:33;;;;;;;3.10;1.58;;;;;;;;;;5028966;28;20203;-74
2023/12/31 00:11:00;;;;;;;3.70;1.48;;;;;;;;;;5030122;28;20276;-74
2023/12/31 00:13:26;;;;;;;4.38;1.20;;;;;;;;;;5030941;28;20178;-75
2023/12/31 00:15:51;;;;;;;2.50;1.30;;;;;;;;;;5028734;28;20197;-74
2023/12/31 00:18:16;;;;;;;2.58;1.38;;;;;;;;;;5012561;28;20202;-74
2023/12/31 00:20:42;;;;;;;3.08;2.05;;;;;;;;;;5035007;28;20662;-74
2023/12/31 00:23:11;;;;;;;3.42;1.73;;;;;;;;;;5029516;28;20313;-74
2023/12/31 00:25:37;;;;;;;3.90;2.78;;;;;;;;;;5029179;28;20198;-75
2023/12/31 00:28:02;;;;;;;3.50;1.70;;;;;;;;;;5028565;28;20213;-74
2023/12/31 00:30:28;;;;;;;6.25;1.73;;;;;;;;;;5009446;28;20223;-75
2023/12/31 00:32:54;;;;;;;3.83;1.90;;;;;;;;;;5010163;28;20183;-75
2023/12/31 00:35:19;;;;;;;4.80;1.75;;;;;;;;;;5017532;28;20290;-74
2023/12/31 00:37:45;;;;;;;5.00;2.00;;;;;;;;;;5028309;28;20476;-74
2023/12/31 00:40:10;;;;;;;2.75;1.70;;;;;;;;;;5028007;28;20233;-74
2023/12/31 00:42:36;;;;;;;4.00;1.48;;;;;;;;;;5010108;28;20368;-75
2023/12/31 00:45:01;;;;;;;6.55;1.77;;;;;;;;;;5029272;28;20190;-75
2023/12/31 00:47:27;;;;;;;3.83;1.80;;;;;;;;;;5025400;28;20260;-74
2023/12/31 00:49:52;;;;;;;6.10;1.97;;;;;;;;;;5007193;28;20198;-75
2023/12/31 00:52:18;;;;;;;3.50;1.50;;;;;;;;;;5014630;28;20272;-75
2023/12/31 00:54:43;;;;;;;3.55;1.73;;;;;;;;;;4995916;28;20771;-74
2023/12/31 00:57:08;;;;;;;2.92;1.40;;;;;;;;;;5022895;28;20186;-75
2023/12/31 00:59:34;;;;;;;4.00;1.63;;;;;;;;;;5029715;28;20197;-74
2023/12/31 01:01:59;;;;;;;8.65;2.13;;;;;;;;;;5025035;28;20198;-74
2023/12/31 01:04:25;;;;;;;3.42;1.75;;;;;;;;;;5030188;28;20634;-75
2023/12/31 01:06:50;;;;;;;3.70;1.90;;;;;;;;;;5003896;28;20178;-75
2023/12/31 01:09:15;;;;;;;3.15;1.52;;;;;;;;;;4988970;28;20225;-75
2023/12/31 01:11:41;;;;;;;4.07;1.60;;;;;;;;;;5020203;28;20190;-74
2023/12/31 01:14:06;;;;;;;5.05;1.60;;;;;;;;;;5011357;28;20181;-75
2023/12/31 01:16:32;;;;;;;2.67;1.30;;;;;;;;;;5023869;28;20646;-74
2023/12/31 01:18:57;;;;;;;3.05;1.60;;;;;;;;;;5023215;28;20688;-74
2023/12/31 01:21:23;;;;;;;3.35;1.50;;;;;;;;;;5009045;28;20332;-75
2023/12/31 01:23:48;;;;;;;2.30;1.50;;;;;;;;;;5028669;28;20281;-75
2023/12/31 01:26:14;;;;;;;3.80;1.58;;;;;;;;;;5010959;28;20221;-74
2023/12/31 01:28:39;;;;;;;2.80;1.65;;;;;;;;;;5032657;28;20692;-74
2023/12/31 01:31:05;;;;;;;1.98;1.40;;;;;;;;;;5009590;28;20236;-74
2023/12/31 01:33:30;;;;;;;1.95;1.35;;;;;;;;;;5028644;28;20628;-75
2023/12/31 01:35:55;;;;;;;3.38;1.70;;;;;;;;;;5027119;28;20267;-74
2023/12/31 01:38:21;;;;;;;2.90;1.55;;;;;;;;;;5028787;28;20273;-75
2023/12/31 01:40:53;;;;;;;2.22;1.55;;;;;;;;;;5027908;28;20676;-75
2023/12/31 01:43:19;;;;;;;4.78;1.42;;;;;;;;;;5010716;28;20196;-74
2023/12/31 01:45:45;;;;;;;2.42;1.40;;;;;;;;;;5010744;28;20293;-74
2023/12/31 01:48:11;;;;;;;2.38;1.10;;;;;;;;;;5027232;28;20230;-75
2023/12/31 01:50:37;;;;;;;2.45;1.35;;;;;;;;;;5028036;28;20603;-74
2023/12/31 01:53:02;;;;;;;2.03;1.13;;;;;;;;;;5012976;28;20224;-74
2023/12/31 01:55:28;;;;;;;2.55;1.08;;;;;;;;;;5011265;28;20243;-74
2023/12/31 01:57:54;;;;;;;3.67;1.13;;;;;;;;;;5016214;28;20202;-74
2023/12/31 02:00:19;;;;;;;3.67;1.30;;;;;;;;;;4987157;28;20259;-76
2023/12/31 02:02:47;;;;;;;1.65;1.05;;;;;;;;;;5024589;28;20200;-75
2023/12/31 02:05:12;;;;;;;2.03;1.15;;;;;;;;;;5016732;28;20509;-76
2023/12/31 02:07:38;;;;;;;7.40;1.30;;;;;;;;;;5027982;28;20218;-75
2023/12/31 02:10:04;;;;;;;1.52;0.70;;;;;;;;;;5024962;28;20182;-75
2023/12/31 02:12:30;;;;;;;1.60;1.00;;;;;;;;;;5020738;28;20217;-76
2023/12/31 02:14:55;;;;;;;1.30;1.00;;;;;;;;;;5020411;28;20182;-76
2023/12/31 02:17:21;;;;;;;2.65;1.10;;;;;;;;;;5014812;28;20201;-76
2023/12/31 02:19:46;;;;;;;3.88;1.08;;;;;;;;;;5004430;28;20241;-75
2023/12/31 02:22:11;;;;;;;1.67;0.90;;;;;;;;;;4988230;28;20188;-76
2023/12/31 02:24:47;;;;;;;2.88;1.17;;;;;;;;;;4989653;28;20182;-75
2023/12/31 02:27:15;;;;;;;2.15;1.10;;;;;;;;;;5007210;28;20240;-76
2023/12/31 02:29:41;;;;;;;3.55;1.10;;;;;;;;;;5004261;28;20206;-75
2023/12/31 02:32:06;;;;;;;4.38;1.25;;;;;;;;;;5010709;28;20195;-75
2023/12/31 02:34:32;;;;;;;2.20;1.63;;;;;;;;;;5004611;28;20182;-75
2023/12/31 02:36:57;;;;;;;1.77;1.30;;;;;;;;;;4990524;28;20183;-75
2023/12/31 02:39:24;;;;;;;1.40;1.00;;;;;;;;;;5008148;28;20191;-76
2023/12/31 02:41:49;;;;;;;1.63;1.20;;;;;;;;;;4988469;28;20254;-73
2023/12/31 02:44:15;;;;;;;3.00;1.40;;;;;;;;;;5007807;28;20589;-74
2023/12/31 02:46:41;;;;;;;1.63;1.13;;;;;;;;;;5002151;28;20222;-75
2023/12/31 02:49:08;;;;;;;4.43;1.30;;;;;;;;;;5002854;28;20294;-76
2023/12/31 02:51:34;;;;;;;2.70;1.38;;;;;;;;;;5006954;28;20226;-76
2023/12/31 02:54:00;;;;;;;3.55;1.70;;;;;;;;;;5004925;28;20183;-75
2023/12/31 02:56:25;;;;;;;2.40;1.23;;;;;;;;;;5003586;28;20198;-75
2023/12/31 02:58:51;;;;;;;3.88;1.70;;;;;;;;;;5000013;28;20191;-76
2023/12/31 03:01:16;;;;;;;1.92;1.65;;;;;;;;;;5024045;28;20573;-75
2023/12/31 03:03:42;;;;;;;2.92;1.70;;;;;;;;;;5009063;28;20191;-75
2023/12/31 03:06:07;;;;;;;3.90;1.83;;;;;;;;;;5005233;28;20319;-76
2023/12/31 03:08:33;;;;;;;4.72;1.90;;;;;;;;;;5003250;28;20268;-75
2023/12/31 03:10:58;;;;;;;3.53;2.10;;;;;;;;;;5009756;28;20222;-75
2023/12/31 03:13:24;;;;;;;3.67;1.95;;;;;;;;;;5002587;28;20191;-75
2023/12/31 03:15:49;;;;;;;3.55;1.83;;;;;;;;;;5009050;28;20639;-75
2023/12/31 03:18:14;;;;;;;2.53;1.40;;;;;;;;;;5001432;28;20214;-75
2023/12/31 03:20:40;;;;;;;2.53;1.80;;;;;;;;;;5005297;28;20226;-75
2023/12/31 03:23:05;;;;;;;2.30;1.60;;;;;;;;;;4992641;28;20183;-75
2023/12/31 03:25:31;;;;;;;3.03;1.65;;;;;;;;;;5010324;28;20191;-74
2023/12/31 03:27:56;;;;;;;2.75;1.75;;;;;;;;;;5009964;28;20199;-75
2023/12/31 03:30:21;;;;;;;3.50;1.65;;;;;;;;;;5008773;28;20190;-74
2023/12/31 03:32:47;;;;;;;2.88;1.83;;;;;;;;;;4995747;28;20193;-74
2023/12/31 03:35:12;;;;;;;3.58;2.00;;;;;;;;;;5004083;28;20179;-74
2023/12/31 03:37:38;;;;;;;3.92;2.50;;;;;;;;;;5002580;28;20184;-75
2023/12/31 03:40:05;;;;;;;2.80;1.70;;;;;;;;;;4991554;28;20611;-74
2023/12/31 03:42:30;;;;;;;6.20;1.92;;;;;;;;;;4995311;28;20195;-75
2023/12/31 03:44:55;;;;;;;3.53;1.90;;;;;;;;;;5007289;28;20194;-75
2023/12/31 03:47:21;;;;;;;2.60;1.73;;;;;;;;;;5008783;28;20187;-75
2023/12/31 03:49:46;;;;;;;4.28;1.80;;;;;;;;;;5008157;28;20195;-74
2023/12/31 03:52:12;;;;;;;4.55;2.00;;;;;;;;;;5005968;28;20604;-74
2023/12/31 03:54:41;;;;;;;2.47;1.60;;;;;;;;;;5002339;28;20585;-75
2023/12/31 03:57:06;;;;;;;4.45;1.90;;;;;;;;;;5010005;28;20217;-75
2023/12/31 03:59:32;;;;;;;5.15;1.95;;;;;;;;;;5009491;28;20218;-74
2023/12/31 04:01:58;;;;;;;4.15;1.80;;;;;;;;;;5009024;28;20209;-75
2023/12/31 04:04:25;;;;;;;3.25;1.95;;;;;;;;;;5008902;28;20241;-75
2023/12/31 04:06:51;;;;;;;3.15;1.90;;;;;;;;;;5009660;28;20202;-74
2023/12/31 04:09:16;;;;;;;2.65;2.10;;;;;;;;;;5009310;28;20206;-75
2023/12/31 04:11:42;;;;;;;3.85;1.75;;;;;;;;;;5003837;28;20192;-74
2023/12/31 04:14:07;;;;;;;4.55;1.80;;;;;;;;;;4992080;28;20591;-75
2023/12/31 04:16:33;;;;;;;3.33;1.67;;;;;;;;;;5009837;28;20406;-75
2023/12/31 04:18:58;;;;;;;2.75;1.75;;;;;;;;;;5008018;28;20207;-74
2023/12/31 04:21:24;;;;;;;3.38;1.85;;;;;;;;;;5003220;28;20223;-75
2023/12/31 04:23:49;;;;;;;4.82;2.00;;;;;;;;;;5009274;28;20706;-75
2023/12/31 04:26:14;;;;;;;2.72;1.90;;;;;;;;;;5009212;28;20195;-75
2023/12/31 04:28:40;;;;;;;4.05;2.00;;;;;;;;;;5009138;28;20203;-75
2023/12/31 04:31:06;;;;;;;5.80;1.80;;;;;;;;;;5008581;28;20194;-75
2023/12/31 04:33:32;;;;;;;5.22;1.70;;;;;;;;;;4997687;28;20640;-75
2023/12/31 04:35:57;;;;;;;2.90;1.83;;;;;;;;;;5009912;28;20290;-75
2023/12/31 04:38:23;;;;;;;2.88;1.63;;;;;;;;;;5010687;28;20190;-74
2023/12/31 04:40:48;;;;;;;3.03;1.65;;;;;;;;;;5006081;28;20326;-76
2023/12/31 04:43:14;;;;;;;4.13;1.80;;;;;;;;;;5008140;28;20282;-76
2023/12/31 04:45:39;;;;;;;4.18;1.80;;;;;;;;;;5004336;28;20669;-76
2023/12/31 04:48:05;;;;;;;2.83;1.35;;;;;;;;;;5007293;28;20214;-75
2023/12/31 04:50:30;;;;;;;3.20;1.40;;;;;;;;;;5007479;28;20228;-75
2023/12/31 04:52:56;;;;;;;1.77;1.23;;;;;;;;;;5008696;28;20253;-76
2023/12/31 04:55:22;;;;;;;4.97;1.67;;;;;;;;;;4997270;28;20241;-76
2023/12/31 04:57:49;;;;;;;1.33;1.05;;;;;;;;;;5006124;28;20215;-75
2023/12/31 05:00:15;;;;;;;2.28;1.30;;;;;;;;;;5002894;28;20191;-75
2023/12/31 05:02:40;;;;;;;2.95;1.67;;;;;;;;;;5017734;28;20380;-75
2023/12/31 05:05:06;;;;;;;1.90;1.23;;;;;;;;;;5004489;28;20541;-75
2023/12/31 05:07:32;;;;;;;1.70;1.25;;;;;;;;;;5006560;28;20656;-75
2023/12/31 05:09:57;;;;;;;1.13;1.02;;;;;;;;;;5003949;28;20194;-75
2023/12/31 05:12:23;;;;;;;2.70;1.52;;;;;;;;;;5007521;28;20221;-75
2023/12/31 05:14:48;;;;;;;4.65;1.75;;;;;;;;;;5014693;28;20553;-75
2023/12/31 05:17:14;;;;;;;2.17;1.60;;;;;;;;;;5002265;28;20198;-75
2023/12/31 05:19:39;;;;;;;2.50;1.27;;;;;;;;;;5011284;28;20252;-75
2023/12/31 05:22:04;;;;;;;2.85;1.40;;;;;;;;;;5026365;28;20568;-75
2023/12/31 05:24:30;;;;;;;3.33;1.40;;;;;;;;;;5027835;28;20217;-75
2023/12/31 05:26:55;;;;;;;2.55;1.40;;;;;;;;;;5010391;28;20232;-75
2023/12/31 05:29:21;;;;;;;3.28;1.38;;;;;;;;;;5020543;28;20206;-74
2023/12/31 05:31:46;;;;;;;2.50;1.38;;;;;;;;;;5009864;28;20308;-74
2023/12/31 05:34:12;;;;;;;2.05;1.30;;;;;;;;;;5024466;28;20190;-74
2023/12/31 05:36:37;;;;;;;3.75;1.48;;;;;;;;;;5022268;28;20305;-74
2023/12/31 05:39:03;;;;;;;2.33;1.60;;;;;;;;;;5028606;28;20197;-74
2023/12/31 05:41:28;;;;;;;2.92;1.42;;;;;;;;;;5013253;28;20193;-74
2023/12/31 05:43:54;;;;;;;3.38;1.70;;;;;;;;;;5027309;28;20434;-75
2023/12/31 05:46:20;;;;;;;2.35;1.70;;;;;;;;;;5007101;28;20194;-73
2023/12/31 05:48:45;;;;;;;3.60;1.80;;;;;;;;;;5028382;28;20222;-74
2023/12/31 05:51:12;;;;;;;1.95;1.60;;;;;;;;;;5028517;28;20194;-74
2023/12/31 05:53:37;;;;;;;2.25;1.50;;;;;;;;;;5028036;28;20193;-74
2023/12/31 05:56:03;;;;;;;2.15;1.25;;;;;;;;;;5020389;28;20197;-74
2023/12/31 05:58:28;;;;;;;2.40;1.90;;;;;;;;;;5027230;28;20506;-74
2023/12/31 06:00:53;;;;;;;3.58;1.58;;;;;;;;;;5027079;28;20276;-74
2023/12/31 06:03:19;;;;;;;3.03;1.80;;;;;;;;;;5027184;28;20186;-74
2023/12/31 06:05:44;;;;;;;4.95;1.65;;;;;;;;;;5009138;28;20878;-74
2023/12/31 06:08:10;;;;;;;3.60;2.03;;;;;;;;;;5009706;28;20205;-74
2023/12/31 06:10:35;;;;;;;4.95;1.90;;;;;;;;;;5012940;28;20222;-74
2023/12/31 06:13:01;;;;;;;4.53;1.80;;;;;;;;;;5006624;28;20525;-73
2023/12/31 06:15:27;;;;;;;6.07;2.00;;;;;;;;;;5024952;28;20564;-76
2023/12/31 06:17:53;;;;;;;5.32;1.90;;;;;;;;;;5009399;28;20213;-75
2023/12/31 06:20:19;;;;;;;3.53;1.77;;;;;;;;;;5006627;28;20218;-75
2023/12/31 06:22:44;;;;;;;3.47;1.73;;;;;;;;;;4987397;28;20195;-75
2023/12/31 06:25:10;;;;;;;2.35;1.67;;;;;;;;;;4988834;28;20190;-74
2023/12/31 06:27:38;;;;;;;4.53;1.90;;;;;;;;;;4988882;28;20215;-74
2023/12/31 06:30:04;;;;;;;2.03;1.55;;;;;;;;;;5001211;28;20189;-75
2023/12/31 06:32:30;;;;;;;3.60;1.67;;;;;;;;;;5000714;28;20213;-75
2023/12/31 06:34:55;;;;;;;3.33;1.60;;;;;;;;;;4993684;28;20608;-74
2023/12/31 06:37:20;;;;;;;2.53;1.83;;;;;;;;;;4992521;28;20191;-75
2023/12/31 06:39:46;;;;;;;4.60;1.77;;;;;;;;;;5007536;28;20266;-75
2023/12/31 06:42:12;;;;;;;2.33;1.55;;;;;;;;;;4991120;28;20647;-75
2023/12/31 06:44:37;;;;;;;2.95;1.80;;;;;;;;;;4990218;28;20206;-75
2023/12/31 06:47:03;;;;;;;3.58;1.92;;;;;;;;;;4991984;28;20187;-75
2023/12/31 06:49:28;;;;;;;3.67;1.98;;;;;;;;;;4992125;28;20231;-75
2023/12/31 06:51:54;;;;;;;2.90;1.60;;;;;;;;;;4996712;28;20198;-75
2023/12/31 06:54:19;;;;;;;2.83;1.85;;;;;;;;;;4989667;28;20195;-75
2023/12/31 06:56:45;;;;;;;6.00;1.67;;;;;;;;;;4990875;28;20203;-75
2023/12/31 06:59:10;;;;;;;4.80;1.70;;;;;;;;;;4995608;28;20190;-75
2023/12/31 07:01:35;;;;;;;2.50;1.70;;;;;;;;;;4995916;28;20573;-75
2023/12/31 07:04:01;;;;;;;2.72;1.75;;;;;;;;;;4988914;28;20219;-74
2023/12/31 07:06:26;;;;;;;2.25;1.60;;;;;;;;;;4991820;28;20490;-75
2023/12/31 07:08:52;;;;;;;2.53;1.60;;;;;;;;;;4981836;28;20671;-75
2023/12/31 07:11:17;;;;;;;3.05;2.00;;;;;;;;;;4990797;28;20258;-75
2023/12/31 07:13:43;;;;;;;5.15;1.92;;;;;;;;;;4989327;28;20290;-75
2023/12/31 07:16:09;;;;;;;4.47;1.80;;;;;;;;;;4989426;28;20678;-74
2023/12/31 07:18:36;;;;;;;3.22;1.70;;;;;;;;;;4987810;28;20230;-74
2023/12/31 07:21:02;;;;;;;3.10;1.60;;;;;;;;;;5002495;28;20224;-74
2023/12/31 07:23:27;;;;;;;4.07;1.80;;;;;;;;;;5004083;28;20195;-75
2023/12/31 07:25:53;;;;;;;3.30;1.70;;;;;;;;;;5008757;28;20190;-75
2023/12/31 07:28:19;;;;;;;4.03;1.90;;;;;;;;;;5026379;28;20202;-75
2023/12/31 07:30:44;;;;;;;1.95;1.40;;;;;;;;;;5007561;28;20202;-75
2023/12/31 07:33:10;;;;;;;2.70;1.70;;;;;;;;;;5010215;28;20264;-75
2023/12/31 07:35:36;;;;;;;5.68;1.70;;;;;;;;;;5010189;28;20199;-75
2023/12/31 07:38:03;;;;;;;2.65;1.60;;;;;;;;;;5010034;28;20270;-75
2023/12/31 07:40:30;;;;;;;3.00;1.70;;;;;;;;;;5010144;28;20219;-75
2023/12/31 07:42:55;;;;;;;2.72;1.65;;;;;;;;;;5004682;28;20206;-75
2023/12/31 07:45:21;;;;;;;2.22;1.50;;;;;;;;;;5009410;28;20187;-75
2023/12/31 07:47:47;;;;;;;2.30;1.85;;;;;;;;;;5006501;28;20248;-75
2023/12/31 07:50:13;;;;;;;7.03;1.90;;;;;;;;;;5010338;28;20279;-75
2023/12/31 07:52:38;;;;;;;2.08;1.42;;;;;;;;;;5021146;28;20344;-76
2023/12/31 07:55:05;;;;;;;2.05;1.70;;;;;;;;;;5009382;28;20787;-75
2023/12/31 07:57:30;;;;;;;2.20;1.63;;;;;;;;;;5025382;28;20199;-76
2023/12/31 07:59:56;;;;;;;2.50;1.75;;;;;;;;;;5011127;28;20596;-75
2023/12/31 08:02:21;;;;;;;2.13;1.60;;;;;;;;;;5010671;28;20179;-75
2023/12/31 08:04:47;;;;;;;4.00;1.63;;;;;;;;;;5002920;28;20183;-75
2023/12/31 08:07:12;;;;;;;4.70;1.95;;;;;;;;;;5008180;28;20262;-76
2023/12/31 08:09:37;;;;;;;2.80;1.90;;;;;;;;;;5008699;28;20242;-76
2023/12/31 08:12:03;;;;;;;2.75;1.77;;;;;;;;;;4996702;28;20265;-76
2023/12/31 08:14:29;;;;;;;2.60;1.85;;;;;;;;;;5022043;28;20195;-76
2023/12/31 08:16:55;;;;;;;2.88;1.80;;;;;;;;;;5006309;28;20313;-75
2023/12/31 08:19:20;;;;;;;3.22;1.88;;;;;;;;;;5012056;28;20211;-76
2023/12/31 08:21:47;;;;;;;4.90;2.00;;;;;;;;;;5009749;28;20187;-75
2023/12/31 08:24:19;;;;;;;1.80;1.40;;;;;;;;;;5029895;28;20233;-74
2023/12/31 08:26:44;;;;;;;3.72;1.85;;;;;;;;;;5024041;28;20191;-75
2023/12/31 08:29:10;;;;;;;2.90;2.00;;;;;;;;;;5009865;28;20701;-75
2023/12/31 08:31:35;;;;;;;2.42;1.60;;;;;;;;;;5026364;28;20202;-75
2023/12/31 08:34:01;;;;;;;2.42;1.88;;;;;;;;;;5026058;28;20209;-76
2023/12/31 08:36:26;;;;;;;5.72;2.15;;;;;;;;;;5023760;28;20312;-75
2023/12/31 08:38:52;;;;;;;2.75;1.88;;;;;;;;;;5029977;28;20225;-76
2023/12/31 08:41:17;;;;;;;3.40;2.15;;;;;;;;;;5003849;28;20298;-75
2023/12/31 08:43:43;;;;;;;4.05;2.00;;;;;;;;;;5024129;28;20194;-75
2023/12/31 08:46:10;;;;;;;2.50;1.92;;;;;;;;;;5025118;28;20552;-76
2023/12/31 08:48:35;;;;;;;3.17;2.25;;;;;;;;;;5028293;28;20323;-76
2023/12/31 08:51:02;;;;;;;2.10;1.90;;;;;;;;;;5013463;28;20221;-75
2023/12/31 08:53:27;;;;;;;5.00;1.90;;;;;;;;;;5017568;28;20266;-76
2023/12/31 08:55:53;;;;;;;3.15;2.50;;;;;;;;;;5016097;28;20291;-76
2023/12/31 08:58:18;;;;;;;4.57;2.17;;;;;;;;;;4994106;28;20174;-75
2023/12/31 09:00:44;;;;;;;3.75;2.63;;;;;;;;;;5026399;28;20267;-75
2023/12/31 09:03:09;;;;;;;3.75;1.95;;;;;;;;;;5026650;28;20189;-75
2023/12/31 09:05:35;;;;;;;3.05;2.40;;;;;;;;;;5028339;28;20580;-74
2023/12/31 09:08:02;;;;;;;3.90;2.35;;;;;;;;;;5010034;28;20244;-75
2023/12/31 09:10:27;;;;;;;3.45;2.20;;;;;;;;;;5010557;28;20198;-74
2023/12/31 09:12:53;;;;;;;2.63;2.08;;;;;;;;;;4987010;28;20640;-74
2023/12/31 09:15:18;;;;;;;3.90;2.20;;;;;;;;;;5010648;28;20646;-74
2023/12/31 09:17:44;;;;;;;3.42;2.10;;;;;;;;;;5012165;28;20193;-74
2023/12/31 09:20:09;;;;;;;5.65;2.78;;;;;;;;;;5012475;28;20750;-75
2023/12/31 09:22:35;;;;;;;3.70;2.30;;;;;;;;;;5014939;28;20206;-74
2023/12/31 09:25:01;;;;;;;5.78;2.30;;;;;;;;;;5028379;28;20545;-74
2023/12/31 09:27:27;;;;;;;3.65;2.05;;;;;;;;;;4992095;28;20194;-75
2023/12/31 09:29:52;;;;;;;7.45;3.40;;;;;;;;;;5024405;28;20242;-75
2023/12/31 09:32:17;;;;;;;2.85;2.33;;;;;;;;;;5007440;28;20213;-75
2023/12/31 09:34:43;;;;;;;5.28;2.90;;;;;;;;;;5024621;28;21159;-75
2023/12/31 09:37:09;;;;;;;4.88;2.70;;;;;;;;;;5027887;28;20261;-74
2023/12/31 09:39:35;;;;;;;5.47;3.30;;;;;;;;;;4990582;28;20198;-74
2023/12/31 09:42:06;;;;;;;4.53;2.70;;;;;;;;;;5005880;28;20476;-75
2023/12/31 09:44:32;;;;;;;3.95;2.83;;;;;;;;;;5023030;28;20190;-75
2023/12/31 09:47:08;;;;;;;3.80;2.90;;;;;;;;;;5023600;28;20190;-75
2023/12/31 09:49:35;;;;;;;2.47;2.22;;;;;;;;;;5027565;28;20301;-75
2023/12/31 09:52:08;;;;;;;3.95;2.22;;;;;;;;;;5009362;28;20197;-75
2023/12/31 09:54:39;;;;;;;4.43;2.42;;;;;;;;;;5017671;28;20425;-75
2023/12/31 09:57:05;;;;;;;3.20;1.92;;;;;;;;;;4992875;28;20178;-75
2023/12/31 09:59:30;;;;;;;3.33;2.08;;;;;;;;;;5025273;28;20566;-75
2023/12/31 10:02:02;;;;;;;6.57;4.68;;;;;;;;;;5009526;28;20528;-75
2023/12/31 10:04:29;;;;;;;7.25;4.07;;;;;;;;;;5022742;28;20611;-75
2023/12/31 10:06:56;;;;;;;5.80;3.88;;;;;;;;;;5006644;28;20194;-75
2023/12/31 10:09:27;;;;;;;7.15;6.30;;;;;;;;;;5006028;28;20293;-75
2023/12/31 10:11:54;;;;;;;5.47;2.85;;;;;;;;;;5022522;28;20709;-76
2023/12/31 10:14:19;;;;;;;6.18;3.92;;;;;;;;;;5026986;28;20197;-76
2023/12/31 10:16:46;;;;;;;5.82;4.10;;;;;;;;;;5026075;28;20484;-76
2023/12/31 10:19:13;;;;;;;6.47;2.72;;;;;;;;;;5008644;28;21068;-75
2023/12/31 10:21:40;;;;;;;3.28;2.10;;;;;;;;;;5006359;28;20308;-75
2023/12/31 10:24:05;;;;;;;4.30;2.83;;;;;;;;;;5025121;28;20642;-75
2023/12/31 10:26:31;;;;;;;3.50;1.92;;;;;;;;;;4314713;28;10020670;-75
2023/12/31 10:28:56;;;;;;;5.05;2.63;;;;;;;;;;5023713;28;20342;-75
2023/12/31 10:31:22;;;;;;;4.75;3.90;;;;;;;;;;5006507;28;20285;-76
2023/12/31 10:33:47;;;;;;;3.42;2.20;;;;;;;;;;5022779;28;20272;-76
2023/12/31 10:36:13;;;;;;;6.75;5.00;;;;;;;;;;5025400;28;20221;-75
2023/12/31 10:38:46;;;;;;;10.27;6.30;;;;;;;;;;5023180;28;20669;-75
2023/12/31 10:41:17;;;;;;;3.58;2.40;;;;;;;;;;5018539;28;20186;-76
2023/12/31 10:43:45;;;;;;;4.53;3.17;;;;;;;;;;5004629;28;20440;-76
2023/12/31 10:46:14;;;;;;;5.15;2.60;;;;;;;;;;5020155;28;20680;-77
2023/12/31 10:48:46;;;;;;;5.30;3.63;;;;;;;;;;5003833;28;20214;-76
2023/12/31 10:51:13;;;;;;;5.97;3.72;;;;;;;;;;5021194;28;20607;-75
2023/12/31 10:53:41;;;;;;;3.72;2.70;;;;;;;;;;5023588;28;20269;-76
2023/12/31 10:56:06;;;;;;;6.25;3.50;;;;;;;;;;5002940;28;20609;-75
2023/12/31 10:58:32;;;;;;;5.90;2.65;;;;;;;;;;5005957;28;20233;-75
2023/12/31 11:01:00;;;;;;;3.60;2.65;;;;;;;;;;5024136;28;20614;-76
2023/12/31 11:03:27;;;;;;;6.10;2.70;;;;;;;;;;5029457;28;20681;-75
2023/12/31 11:05:54;;;;;;;2.60;2.17;;;;;;;;;;5018771;28;20228;-77
2023/12/31 11:08:21;;;;;;;2.60;2.10;;;;;;;;;;5024719;28;20301;-76
2023/12/31 11:10:46;;;;;;;3.30;2.28;;;;;;;;;;5024099;28;20553;-76
2023/12/31 11:13:16;;;;;;;3.83;2.17;;;;;;;;;;4993149;28;20178;-76
2023/12/31 11:15:43;;;;;;;2.65;2.10;;;;;;;;;;5027367;28;20190;-76
2023/12/31 11:18:20;;;;;;;3.90;2.20;;;;;;;;;;5031141;28;20202;-76
2023/12/31 11:21:07;;;;;;;5.10;3.38;;;;;;;;;;5028590;28;20316;-79
2023/12/31 11:23:54;;;;;;;7.40;5.13;;;;;;;;;;5029181;28;20228;-76
2023/12/31 11:26:19;;;;;;;20.17;13.90;;;;;;;;;;5014080;28;20186;-77
2023/12/31 11:28:49;;;;;;;8.20;5.25;;;;;;;;;;5003032;28;20209;-75
2023/12/31 11:31:15;;;;;;;7.55;4.53;;;;;;;;;;5002953;28;20677;-76
2023/12/31 11:33:40;;;;;;;7.18;4.25;;;;;;;;;;4996222;28;20185;-76
2023/12/31 11:36:11;;;;;;;2.50;1.90;;;;;;;;;;5029796;28;20210;-76
2023/12/31 11:38:56;;;;;;;5.95;2.17;;;;;;;;;;5008831;28;20214;-76
2023/12/31 11:41:23;;;;;;;2.22;1.67;;;;;;;;;;4994839;28;20213;-76
2023/12/31 11:43:51;;;;;;;3.30;2.08;;;;;;;;;;5033153;28;20561;-75
2023/12/31 11:46:47;;;;;;;4.15;2.63;;;;;;;;;;5018471;28;20192;-76
2023/12/31 11:49:16;;;;;;;2.85;2.50;;;;;;;;;;5025376;28;20313;-76
2023/12/31 11:51:56;;;;;;;2.72;1.85;;;;;;;;;;5028143;28;20198;-77
2023/12/31 11:54:34;;;;;;;2.65;1.30;;;;;;;;;;5010589;28;20198;-77
2023/12/31 11:57:00;;;;;;;3.90;1.80;;;;;;;;;;5029108;28;20221;-78
2023/12/31 11:59:26;;;;;;;3.28;1.58;;;;;;;;;;5010300;28;20194;-75
2023/12/31 12:01:53;;;;;;;2.30;1.40;;;;;;;;;;5018334;28;20194;-76
2023/12/31 12:04:18;;;;;;;4.43;2.10;;;;;;;;;;5028760;28;20220;-77
2023/12/31 12:06:44;;;;;;;1.67;1.10;;;;;;;;;;5029067;28;20222;-78
2023/12/31 12:09:11;;;;;;;2.83;1.67;;;;;;;;;;5011831;28;20689;-77
2023/12/31 12:11:38;;;;;;;2.10;1.23;;;;;;;;;;4995301;28;20608;-76
2023/12/31 12:14:04;;;;;;;3.95;2.00;;;;;;;;;;5008941;28;20538;-77
2023/12/31 12:16:30;;;;;;;7.57;2.95;;;;;;;;;;5016715;28;20198;-77
2023/12/31 12:19:05;;;;;;;2.85;1.50;;;;;;;;;;5020798;28;20198;-76
2023/12/31 12:21:31;;;;;;;3.92;2.60;;;;;;;;;;5029819;28;20784;-76
2023/12/31 12:23:57;;;;;;;5.07;2.30;;;;;;;;;;5005772;28;20186;-76
2023/12/31 12:26:22;;;;;;;7.72;2.08;;;;;;;;;;5018588;28;20463;-78
2023/12/31 12:28:55;;;;;;;4.15;1.88;;;;;;;;;;5005086;28;20240;-78
2023/12/31 12:31:21;;;;;;;3.70;2.33;;;;;;;;;;5028608;28;20606;-76
2023/12/31 12:33:54;;;;;;;3.45;2.20;;;;;;;;;;5002832;28;20194;-78
2023/12/31 12:36:22;;;;;;;5.25;2.25;;;;;;;;;;5000092;28;20198;-77
2023/12/31 12:38:48;;;;;;;9.48;5.45;;;;;;;;;;5008960;28;20265;-77
2023/12/31 12:41:24;;;;;;;7.32;4.40;;;;;;;;;;4996331;28;20293;-78
2023/12/31 12:43:51;;;;;;;4.45;2.63;;;;;;;;;;5027387;28;20186;-77
2023/12/31 12:46:17;;;;;;;3.45;2.30;;;;;;;;;;5028212;28;20190;-77
2023/12/31 12:48:49;;;;;;;3.63;1.50;;;;;;;;;;5025122;28;20217;-78
2023/12/31 12:51:15;;;;;;;8.10;4.65;;;;;;;;;;5021667;28;20209;-77
2023/12/31 12:53:40;;;;;;;7.03;4.40;;;;;;;;;;5008442;28;20249;-77
2023/12/31 12:56:06;;;;;;;5.25;3.08;;;;;;;;;;5025614;28;20241;-77
2023/12/31 12:58:31;;;;;;;8.82;4.75;;;;;;;;;;5025683;28;20213;-77
2023/12/31 13:00:57;;;;;;;6.45;5.15;;;;;;;;;;5031610;28;20197;-77
2023/12/31 13:03:23;;;;;;;7.82;5.03;;;;;;;;;;5003308;28;20605;-77
2023/12/31 13:05:48;;;;;;;6.40;2.80;;;;;;;;;;5014315;28;20205;-77
2023/12/31 13:08:14;;;;;;;17.73;10.98;;;;;;;;;;5027801;28;20214;-77
2023/12/31 13:10:39;;;;;;;9.88;6.05;;;;;;;;;;5021169;28;20247;-76
2023/12/31 13:13:05;;;;;;;20.70;10.82;;;;;;;;;;5022114;28;20269;-76
2023/12/31 13:15:30;;;;;;;13.93;8.82;;;;;;;;;;5010201;28;20276;-75
2023/12/31 13:17:56;;;;;;;12.18;7.60;;;;;;;;;;5023513;28;20266;-76
2023/12/31 13:20:24;;;;;;;10.75;5.65;;;;;;;;;;4995884;28;20234;-75
2023/12/31 13:22:50;;;;;;;13.77;9.77;;;;;;;;;;5007736;28;20504;-76
2023/12/31 13:25:16;;;;;;;14.63;9.10;;;;;;;;;;5002302;28;20888;-77
2023/12/31 13:27:41;;;;;;;11.10;7.43;;;;;;;;;;5001192;28;20241;-76
2023/12/31 13:30:07;;;;;;;17.95;11.55;;;;;;;;;;5003357;28;20206;-77
2023/12/31 13:32:33;;;;;;;34.80;21.67;;;;;;;;;;4997709;28;20234;-76
2023/12/31 13:34:58;;;;;;;5.22;3.60;;;;;;;;;;5003868;28;20690;-76
2023/12/31 13:37:23;;;;;;;38.50;27.02;;;;;;;;;;5006381;28;20198;-76
2023/12/31 13:39:49;;;;;;;12.35;8.93;;;;;;;;;;5005020;28;20639;-76
2023/12/31 13:42:14;;;;;;;17.27;13.27;;;;;;;;;;5015452;28;20194;-77
2023/12/31 13:44:40;;;;;;;11.75;7.75;;;;;;;;;;5005472;28;20182;-76
2023/12/31 13:47:05;;;;;;;20.25;12.15;;;;;;;;;;5007919;28;20478;-76
2023/12/31 13:49:31;;;;;;;18.90;13.32;;;;;;;;;;5013240;28;20707;-76
2023/12/31 13:51:56;;;;;;;16.33;9.27;;;;;;;;;;5007476;28;20187;-76
2023/12/31 13:54:22;;;;;;;11.48;7.40;;;;;;;;;;5019901;28;20236;-76
2023/12/31 13:56:48;;;;;;;8.80;5.28;;;;;;;;;;5006213;28;20190;-76
2023/12/31 13:59:14;;;;;;;9.13;5.63;;;;;;;;;;5007604;28;20191;-76
2023/12/31 14:01:40;;;;;;;12.50;7.40;;;;;;;;;;5004798;28;20496;-75
2023/12/31 14:04:06;;;;;;;10.45;7.07;;;;;;;;;;5017518;28;20199;-75
2023/12/31 14:06:33;;;;;;;11.82;6.60;;;;;;;;;;5006941;28;20198;-76
2023/12/31 14:08:59;;;;;;;10.65;7.10;;;;;;;;;;4980672;28;20219;-75
2023/12/31 14:11:24;;;;;;;4.72;2.88;;;;;;;;;;5019803;28;20664;-76
2023/12/31 14:13:50;;;;;;;11.30;5.20;;;;;;;;;;5008672;28;20289;-76
2023/12/31 14:16:15;;;;;;;6.53;3.90;;;;;;;;;;5008430;28;20213;-76
2023/12/31 14:18:40;;;;;;;8.13;4.47;;;;;;;;;;5007556;28;20740;-76
2023/12/31 14:21:06;;;;;;;20.92;10.43;;;;;;;;;;5021385;28;20602;-76
2023/12/31 14:23:32;;;;;;;12.55;7.78;;;;;;;;;;5017085;28;20740;-77
2023/12/31 14:25:57;;;;;;;15.63;8.90;;;;;;;;;;5021223;28;20183;-75
2023/12/31 14:28:23;;;;;;;9.13;5.45;;;;;;;;;;5027337;28;20681;-75
2023/12/31 14:30:49;;;;;;;5.55;3.25;;;;;;;;;;5024564;28;20185;-75
2023/12/31 14:33:14;;;;;;;9.05;5.75;;;;;;;;;;5022294;28;20186;-74
2023/12/31 14:35:39;;;;;;;12.35;5.00;;;;;;;;;;5008299;28;20506;-75